Latest Weather Observations for Swanbourne

IDW60801

Issued at 4:05 pm WST Saturday 1 November 2014 (issued every 30 minutes, with the page automatically refreshed every 10 minutes)

About weather observations | Map of weather stations | Latest weather observations for WA | Other Formats
Station Details ID: 009215 Name: SWANBOURNE Lat: -31.96 Lon: 115.76 Height: 40.96 m
Data from the previous 72 hours. | See also: Recent months at Swanbourne
Date/Time
WST
Temp
°C
App
Temp
°C
Dew
Point
Rel
Hum
%
Delta-T
°C
Wind Press
QNH
hPa
Press
MSL
hPa
Rain
since 9 am
mm
Dir
 
Spd
km/h
Gust
km/h
Spd
kts
Gust
kts
01/04:00pm 26.5 23.2 9.4 34 9.4 SW 17 22 9 12 - - 0.0
01/03:30pm 26.9 22.7 5.8 26 10.9 WSW 17 22 9 12 - - 0.0
01/03:00pm 27.6 23.8 7.5 28 10.8 WSW 17 22 9 12 - - 0.0
01/02:30pm 28.3 24.8 7.0 26 11.4 SW 15 20 8 11 - - 0.0
01/02:00pm 27.5 24.8 8.9 31 10.2 WSW 13 19 7 10 - - 0.0
01/01:30pm 27.6 23.9 6.4 26 11.2 W 15 19 8 10 - - 0.0
01/01:00pm 27.7 24.2 7.0 27 11.0 WNW 15 20 8 11 - - 0.0
01/12:30pm 28.3 26.0 4.6 22 12.1 E 6 11 3 6 - - 0.0
01/12:00pm 27.9 25.2 5.5 24 11.6 NE 9 17 5 9 - - 0.0
01/11:30am 27.2 23.3 5.5 25 11.2 NE 15 24 8 13 - - 0.0
01/11:00am 26.6 22.7 7.1 29 10.3 NNE 17 30 9 16 - - 0.0
01/10:30am 25.8 22.0 7.4 31 9.8 ENE 17 32 9 17 - - 0.0
01/10:00am 24.6 20.5 7.7 34 8.9 ENE 19 30 10 16 - - 0.0
01/09:30am 23.1 18.2 6.8 35 8.4 E 22 33 12 18 - - 0.0
01/09:00am 21.7 16.8 6.8 38 7.6 E 22 33 12 18 - - 0.0
01/08:30am 20.5 15.3 7.2 42 6.8 E 24 37 13 20 - - 0.0
01/08:00am 18.9 13.2 6.7 45 6.1 E 26 39 14 21 - - 0.0
01/07:30am 17.6 11.9 6.8 49 5.4 E 26 39 14 21 - - 0.0
01/07:00am 16.4 11.5 6.8 53 4.7 E 22 35 12 19 - - 0.0
01/06:30am 15.3 10.0 6.6 56 4.2 E 24 35 13 19 - - 0.0
01/06:00am 14.4 8.7 6.5 59 3.8 E 26 43 14 23 - - 0.0
01/05:30am 14.2 9.6 6.6 60 3.7 E 20 30 11 16 - - 0.0
01/05:00am 14.3 9.7 6.4 59 3.8 E 20 30 11 16 - - 0.0
01/04:30am 14.5 9.9 6.6 59 3.8 E 20 32 11 17 - - 0.0
01/04:00am 14.6 10.2 6.7 59 3.8 E 19 30 10 16 - - 0.0
01/03:30am 14.0 10.0 6.8 62 3.5 E 17 26 9 14 - - 0.0
01/03:00am 13.3 9.8 7.1 66 3.0 E 15 22 8 12 - - 0.0
01/02:30am 13.3 9.9 7.5 68 2.8 E 15 20 8 11 - - 0.0
01/02:00am 12.8 10.4 10.2 84 1.3 E 13 17 7 9 - - 0.0
01/01:30am 13.0 11.3 11.2 89 1.0 E 11 15 6 8 - - 0.0
01/01:00am 13.1 11.4 11.3 89 1.0 E 11 13 6 7 - - 0.0
01/12:30am 13.6 12.0 11.7 88 1.0 ESE 11 15 6 8 - - 0.0
01/12:00am 13.9 13.3 11.6 86 1.2 ESE 6 7 3 4 - - 0.0
 
Date/Time
WST
Temp
°C
App
Temp
°C
Dew
Point
Rel
Hum
%
Delta-T
°C
Wind Press
QNH
hPa
Press
MSL
hPa
Rain
since 9 am
mm
Dir
 
Spd
km/h
Gust
km/h
Spd
kts
Gust
kts
31/11:30pm 14.3 13.5 11.6 84 1.4 S 7 7 4 4 - - 0.0
31/11:00pm 14.7 14.2 12.0 84 1.5 SSE 6 7 3 4 - - 0.0
31/10:30pm 15.1 14.6 12.1 82 1.6 SSE 6 9 3 5 - - 0.0
31/10:00pm 15.3 14.3 12.2 82 1.7 S 9 13 5 7 - - 0.0
31/09:30pm 15.7 14.8 12.6 82 1.7 S 9 11 5 6 - - 0.0
31/09:00pm 16.3 15.9 13.0 81 1.8 S 7 13 4 7 - - 0.0
31/08:30pm 16.8 15.6 12.9 78 2.2 S 11 15 6 8 - - 0.0
31/08:00pm 16.9 15.4 12.0 73 2.7 S 11 17 6 9 - - 0.0
31/07:30pm 17.1 16.0 12.0 72 2.8 S 9 15 5 8 - - 0.0
31/07:00pm 17.4 15.1 11.7 69 3.1 S 15 22 8 12 - - 0.0
31/06:30pm 17.7 14.9 11.5 67 3.4 SSW 17 24 9 13 - - 0.0
31/06:00pm 18.1 15.0 11.7 66 3.5 SSW 19 28 10 15 - - 0.0
31/05:30pm 19.3 16.2 11.6 61 4.2 SSW 19 32 10 17 - - 0.0
31/05:00pm 19.7 16.4 11.5 59 4.5 SSW 20 32 11 17 - - 0.0
31/04:30pm 19.9 16.1 11.1 57 4.8 SSW 22 33 12 18 - - 0.0
31/04:00pm 20.4 16.8 10.5 53 5.4 SSW 20 35 11 19 - - 0.0
31/03:30pm 20.4 16.5 10.8 54 5.2 SSW 22 32 12 17 - - 0.0
31/03:00pm 20.4 16.3 10.2 52 5.5 SW 22 33 12 18 - - 0.0
31/02:30pm 19.6 15.1 10.0 54 5.1 SW 24 33 13 18 - - 0.0
31/02:00pm 20.2 15.4 10.3 53 5.4 SW 26 33 14 18 - - 0.0
31/01:30pm 18.5 14.1 9.0 54 5.0 SW 22 33 12 18 - - 0.0
31/01:00pm 20.3 15.8 10.1 52 5.5 SW 24 37 13 20 - - 0.0
31/12:30pm 20.4 15.9 8.7 47 6.2 SW 22 33 12 18 - - 0.0
31/12:00pm 20.8 16.5 9.4 48 6.1 SW 22 32 12 17 - - 0.0
31/11:30am 21.3 18.0 7.9 42 7.0 S 15 22 8 12 - - 0.0
31/11:00am 21.7 19.3 8.6 43 6.9 S 11 24 6 13 - - 0.0
31/10:30am 21.2 18.1 7.1 40 7.2 SSE 13 22 7 12 - - 0.0
31/10:00am 20.2 16.9 7.9 45 6.4 S 15 22 8 12 - - 0.0
31/09:30am 19.2 15.5 7.9 48 5.8 S 17 28 9 15 - - 0.0
31/09:00am 18.5 15.2 8.2 51 5.3 S 15 24 8 13 - - 3.4
31/08:30am 17.6 14.2 9.0 57 4.5 SSE 17 26 9 14 - - 3.4
31/08:00am 16.7 13.4 9.6 63 3.7 SSE 17 30 9 16 - - 3.4
31/07:30am 15.5 12.0 10.3 71 2.7 S 19 30 10 16 - - 3.4
31/07:00am 13.9 11.0 10.9 82 1.6 S 17 30 9 16 - - 3.4
31/06:30am 13.2 9.7 12.1 93 0.6 S 22 33 12 18 - - 3.4
31/06:00am 12.9 9.5 12.6 98 0.2 S 22 33 12 18 - - 3.4
31/05:30am 13.9 11.4 13.6 98 0.2 SSE 19 30 10 16 - - 3.4
31/05:00am 14.7 13.3 14.4 98 0.2 SSE 15 20 8 11 - - 3.2
31/04:30am 14.9 13.2 14.6 98 0.2 SSE 17 26 9 14 - - 3.0
31/04:00am 15.8 13.7 14.7 93 0.6 SSW 19 35 10 19 - - 1.4
31/03:30am 17.8 14.9 12.9 73 2.7 WSW 20 30 11 16 - - 0.0
31/03:00am 17.8 14.5 12.7 72 2.8 WSW 22 30 12 16 - - 0.0
31/02:30am 17.8 14.2 12.9 73 2.7 WSW 24 35 13 19 - - 0.0
31/02:00am 17.8 14.5 11.6 67 3.4 WSW 20 26 11 14 - - 0.0
31/01:30am 17.4 14.2 11.4 68 3.3 WSW 19 28 10 15 - - 0.0
31/01:00am 17.3 13.9 11.1 67 3.4 SW 20 32 11 17 - - 0.0
31/12:30am 17.0 14.5 12.3 74 2.6 SW 17 26 9 14 - - 0.0
31/12:00am 17.3 14.3 12.4 73 2.7 WSW 20 28 11 15 - - 0.0
 
Date/Time
WST
Temp
°C
App
Temp
°C
Dew
Point
Rel
Hum
%
Delta-T
°C
Wind Press
QNH
hPa
Press
MSL
hPa
Rain
since 9 am
mm
Dir
 
Spd
km/h
Gust
km/h
Spd
kts
Gust
kts
30/11:30pm 17.4 13.9 12.1 71 2.9 WSW 22 30 12 16 - - 0.0
30/11:00pm 17.1 13.4 11.6 70 3.0 SW 22 30 12 16 - - 0.0
30/10:30pm 16.9 14.1 13.2 79 2.1 SW 20 33 11 18 - - 0.0
30/10:00pm 16.1 14.1 12.8 81 1.8 SW 15 20 8 11 - - 0.0
30/09:30pm 16.7 12.6 13.8 83 1.6 SW 28 39 15 21 - - 0.0
30/09:00pm 17.5 14.1 11.3 67 3.4 WSW 20 32 11 17 - - 0.0
30/08:30pm 17.7 14.8 12.2 70 3.0 SW 19 28 10 15 - - 0.0
30/08:00pm 17.9 14.4 11.0 64 3.7 WSW 20 28 11 15 - - 0.0
30/07:30pm 17.8 14.8 10.7 63 3.8 SW 17 26 9 14 - - 0.0
30/07:00pm 17.8 13.1 9.4 58 4.4 WSW 24 39 13 21 - - 0.0
30/06:30pm 17.8 14.4 11.1 65 3.6 WSW 20 30 11 16 - - 0.0
30/06:00pm 17.8 14.1 11.4 66 3.5 SW 22 33 12 18 - - 0.0
30/05:30pm 18.0 14.4 11.8 67 3.4 WSW 22 33 12 18 - - 0.0
30/05:00pm 18.3 14.9 11.4 64 3.8 WSW 20 32 11 17 - - 0.0
30/04:30pm 18.3 14.8 10.9 62 4.0 SW 20 30 11 16 - - 0.0
30/04:00pm 18.9 14.7 9.9 56 4.8 WSW 22 35 12 19 - - 0.0
30/03:30pm 19.1 15.7 11.2 60 4.3 WSW 20 35 11 19 - - 0.0
30/03:00pm 20.8 17.0 9.7 49 6.0 WSW 20 32 11 17 - - 0.0
30/02:30pm 20.0 15.8 11.0 56 4.9 WSW 24 32 13 17 - - 0.0
30/02:00pm 20.6 17.0 11.8 57 4.9 WSW 22 32 12 17 - - 0.0
30/01:30pm 21.6 18.6 11.9 54 5.4 SW 19 26 10 14 - - 0.0
30/01:00pm 20.9 17.6 11.0 53 5.4 SW 19 28 10 15 - - 0.0
30/12:30pm 21.6 18.5 11.6 53 5.6 SW 19 28 10 15 - - 0.0
30/12:00pm 21.7 18.4 11.7 53 5.6 WSW 20 28 11 15 - - 0.0
30/11:30am 20.4 17.5 12.4 60 4.5 SW 19 30 10 16 - - 0.0
30/11:00am 20.1 17.3 13.1 64 4.0 SW 20 28 11 15 - - 0.0
30/10:30am 20.4 17.9 13.4 64 4.0 SW 19 26 10 14 - - 0.0
30/10:00am 19.0 16.7 14.1 73 2.8 SW 19 28 10 15 - - 0.0
30/09:30am 19.8 17.7 13.7 68 3.5 SSW 17 22 9 12 - - 0.0
30/09:00am 19.9 18.2 13.6 67 3.6 SSW 15 24 8 13 - - 0.0
30/08:30am 19.2 17.2 14.0 72 3.0 SSW 17 22 9 12 - - 0.0
30/08:00am 17.6 16.0 13.9 79 2.1 SSW 15 22 8 12 - - 0.0
30/07:30am 16.8 15.6 13.9 83 1.6 SSW 13 20 7 11 - - 0.0
30/07:00am 16.6 15.4 13.9 84 1.5 S 13 20 7 11 - - 0.0
30/06:30am 16.7 15.4 13.8 83 1.6 SSW 13 24 7 13 - - 0.0
30/06:00am 16.6 14.5 13.5 82 1.7 SSW 17 26 9 14 - - 0.0
30/05:30am 16.6 14.2 13.7 83 1.6 SW 19 30 10 16 - - 0.0
30/05:00am 16.3 16.1 13.6 84 1.5 S 7 13 4 7 - - 0.0
30/04:30am 16.4 15.9 13.7 84 1.5 S 9 15 5 8 - - 0.0
30/04:00am 16.6 15.7 13.7 83 1.6 S 11 17 6 9 - - 0.0
30/03:30am 16.9 15.1 14.4 85 1.4 SSW 17 28 9 15 - - 0.0
30/03:00am 16.6 15.0 13.9 84 1.5 S 15 28 8 15 - - 0.0
30/02:30am 16.7 14.5 14.3 86 1.4 SSW 19 28 10 15 - - 0.0
30/02:00am 16.8 14.6 14.3 85 1.4 SSW 19 30 10 16 - - 0.0
30/01:30am 16.8 15.1 14.8 88 1.2 S 17 24 9 13 - - 0.0
30/01:00am 16.8 15.1 14.8 88 1.2 S 17 26 9 14 - - 0.0
30/12:30am 17.2 14.6 14.8 86 1.4 SSW 22 35 12 19 - - 0.0
30/12:00am 17.3 14.6 14.6 84 1.6 SSW 22 33 12 18 - - 0.0
 
Date/Time
WST
Temp
°C
App
Temp
°C
Dew
Point
Rel
Hum
%
Delta-T
°C
Wind Press
QNH
hPa
Press
MSL
hPa
Rain
since 9 am
mm
Dir
 
Spd
km/h
Gust
km/h
Spd
kts
Gust
kts
29/11:30pm 17.6 15.0 14.9 84 1.6 SSW 22 33 12 18 - - 0.0
29/11:00pm 17.9 15.9 15.0 83 1.7 SSW 19 30 10 16 - - 0.0
29/10:30pm 17.8 16.3 15.2 85 1.5 SSW 17 26 9 14 - - 0.0
29/10:00pm 17.9 16.4 15.3 85 1.5 SSW 17 26 9 14 - - 0.0
29/09:30pm 17.9 16.5 15.5 86 1.4 S 17 28 9 15 - - 0.0
29/09:00pm 18.1 16.2 15.7 86 1.4 SSW 20 33 11 18 - - 0.0
29/08:30pm 18.1 15.7 15.5 85 1.5 SSW 22 32 12 17 - - 0.0
29/08:00pm 18.1 15.8 15.7 86 1.4 SSW 22 33 12 18 - - 0.0
29/07:30pm 18.1 16.5 15.9 87 1.3 SSW 19 28 10 15 - - 0.0
29/07:00pm 18.4 16.1 15.8 85 1.5 SW 22 32 12 17 - - 0.0
29/06:30pm 19.0 17.7 15.9 82 1.8 SW 17 24 9 13 - - 0.0
29/06:00pm 20.0 18.7 15.8 77 2.5 SSW 17 26 9 14 - - 0.0
29/05:30pm 20.4 19.1 15.8 75 2.7 SSW 17 28 9 15 - - 0.0
29/05:00pm 20.6 18.0 16.0 75 2.8 SW 24 35 13 19 - - 0.0
29/04:30pm 21.0 18.4 15.8 72 3.1 SSW 24 37 13 20 - - 0.0

Other Formats:

Comma delimited format used in spreadsheet applications
http://www.bom.gov.au/fwo/IDW60801/IDW60801.94614.axf

JavaScript Object Notation format (JSON) in row-major order
http://www.bom.gov.au/fwo/IDW60801/IDW60801.94614.json